sensor_id;sensor_type;location;lat;lon;timestamp;temperature;humidity
4376;DHT22;2202;50.866;12.750;2023-10-09T00:01:51;10.80;94.10
4376;DHT22;2202;50.866;12.750;2023-10-09T00:04:18;10.80;94.20
4376;DHT22;2202;50.866;12.750;2023-10-09T00:06:47;10.80;94.20
4376;DHT22;2202;50.866;12.750;2023-10-09T00:09:15;10.90;94.00
4376;DHT22;2202;50.866;12.750;2023-10-09T00:12:06;11.00;93.80
4376;DHT22;2202;50.866;12.750;2023-10-09T00:14:35;11.00;93.80
4376;DHT22;2202;50.866;12.750;2023-10-09T00:17:04;11.00;94.00
4376;DHT22;2202;50.866;12.750;2023-10-09T00:19:43;11.00;94.10
4376;DHT22;2202;50.866;12.750;2023-10-09T00:22:14;11.10;94.10
4376;DHT22;2202;50.866;12.750;2023-10-09T00:24:55;11.10;94.30
4376;DHT22;2202;50.866;12.750;2023-10-09T00:27:38;11.20;94.30
4376;DHT22;2202;50.866;12.750;2023-10-09T00:30:09;11.20;94.50
4376;DHT22;2202;50.866;12.750;2023-10-09T00:32:40;11.20;94.60
4376;DHT22;2202;50.866;12.750;2023-10-09T00:35:11;11.20;94.60
4376;DHT22;2202;50.866;12.750;2023-10-09T00:37:55;11.30;94.70
4376;DHT22;2202;50.866;12.750;2023-10-09T00:40:32;11.30;94.60
4376;DHT22;2202;50.866;12.750;2023-10-09T00:43:00;11.40;94.90
4376;DHT22;2202;50.866;12.750;2023-10-09T00:45:32;11.60;95.30
4376;DHT22;2202;50.866;12.750;2023-10-09T00:48:05;11.70;95.30
4376;DHT22;2202;50.866;12.750;2023-10-09T00:50:35;11.80;95.00
4376;DHT22;2202;50.866;12.750;2023-10-09T00:53:06;11.90;94.60
4376;DHT22;2202;50.866;12.750;2023-10-09T00:55:39;12.00;94.50
4376;DHT22;2202;50.866;12.750;2023-10-09T00:58:12;12.00;94.10
4376;DHT22;2202;50.866;12.750;2023-10-09T01:00:40;12.00;94.60
4376;DHT22;2202;50.866;12.750;2023-10-09T01:03:13;11.90;94.80
4376;DHT22;2202;50.866;12.750;2023-10-09T01:05:46;11.90;94.80
4376;DHT22;2202;50.866;12.750;2023-10-09T01:08:19;11.90;95.10
4376;DHT22;2202;50.866;12.750;2023-10-09T01:10:54;11.90;95.20
4376;DHT22;2202;50.866;12.750;2023-10-09T01:13:24;11.90;95.20
4376;DHT22;2202;50.866;12.750;2023-10-09T01:16:05;12.00;95.20
4376;DHT22;2202;50.866;12.750;2023-10-09T01:18:32;12.00;95.30
4376;DHT22;2202;50.866;12.750;2023-10-09T01:21:04;12.10;95.20
4376;DHT22;2202;50.866;12.750;2023-10-09T01:23:32;12.20;94.90
4376;DHT22;2202;50.866;12.750;2023-10-09T01:25:59;12.10;94.90
4376;DHT22;2202;50.866;12.750;2023-10-09T01:28:26;12.10;95.10
4376;DHT22;2202;50.866;12.750;2023-10-09T01:30:54;12.10;95.20
4376;DHT22;2202;50.866;12.750;2023-10-09T01:33:21;12.10;95.30
4376;DHT22;2202;50.866;12.750;2023-10-09T01:35:49;12.20;95.30
4376;DHT22;2202;50.866;12.750;2023-10-09T01:38:19;12.20;95.20
4376;DHT22;2202;50.866;12.750;2023-10-09T01:40:57;12.20;95.40
4376;DHT22;2202;50.866;12.750;2023-10-09T01:43:32;12.20;95.50
4376;DHT22;2202;50.866;12.750;2023-10-09T01:46:01;12.20;95.80
4376;DHT22;2202;50.866;12.750;2023-10-09T01:48:30;12.20;95.80
4376;DHT22;2202;50.866;12.750;2023-10-09T01:51:01;12.20;95.90
4376;DHT22;2202;50.866;12.750;2023-10-09T01:53:30;12.30;95.70
4376;DHT22;2202;50.866;12.750;2023-10-09T01:56:09;12.30;95.60
4376;DHT22;2202;50.866;12.750;2023-10-09T01:58:41;12.30;95.60
4376;DHT22;2202;50.866;12.750;2023-10-09T02:01:08;12.40;95.50
4376;DHT22;2202;50.866;12.750;2023-10-09T02:03:36;12.40;95.60
4376;DHT22;2202;50.866;12.750;2023-10-09T02:06:04;12.50;95.50
4376;DHT22;2202;50.866;12.750;2023-10-09T02:08:43;12.60;95.30
4376;DHT22;2202;50.866;12.750;2023-10-09T02:11:16;12.70;95.00
4376;DHT22;2202;50.866;12.750;2023-10-09T02:13:50;12.70;94.80
4376;DHT22;2202;50.866;12.750;2023-10-09T02:16:21;12.70;94.80
4376;DHT22;2202;50.866;12.750;2023-10-09T02:18:54;12.70;94.90
4376;DHT22;2202;50.866;12.750;2023-10-09T02:21:24;12.70;94.90
4376;DHT22;2202;50.866;12.750;2023-10-09T02:23:59;12.80;94.90
4376;DHT22;2202;50.866;12.750;2023-10-09T02:26:32;12.70;95.00
4376;DHT22;2202;50.866;12.750;2023-10-09T02:29:21;12.70;95.30
4376;DHT22;2202;50.866;12.750;2023-10-09T02:31:50;12.70;95.50
4376;DHT22;2202;50.866;12.750;2023-10-09T02:34:18;12.70;95.50
4376;DHT22;2202;50.866;12.750;2023-10-09T02:36:48;12.80;95.30
4376;DHT22;2202;50.866;12.750;2023-10-09T02:39:23;12.80;95.40
4376;DHT22;2202;50.866;12.750;2023-10-09T02:41:52;12.90;95.30
4376;DHT22;2202;50.866;12.750;2023-10-09T02:44:23;12.90;95.40
4376;DHT22;2202;50.866;12.750;2023-10-09T02:46:51;12.90;95.50
4376;DHT22;2202;50.866;12.750;2023-10-09T02:49:23;13.00;95.30
4376;DHT22;2202;50.866;12.750;2023-10-09T02:51:50;13.00;95.30
4376;DHT22;2202;50.866;12.750;2023-10-09T02:54:19;13.00;95.20
4376;DHT22;2202;50.866;12.750;2023-10-09T02:56:54;13.10;95.10
4376;DHT22;2202;50.866;12.750;2023-10-09T02:59:30;13.10;95.10
4376;DHT22;2202;50.866;12.750;2023-10-09T03:01:58;13.10;95.00
4376;DHT22;2202;50.866;12.750;2023-10-09T03:04:25;13.10;95.00
4376;DHT22;2202;50.866;12.750;2023-10-09T03:06:56;13.00;95.30
4376;DHT22;2202;50.866;12.750;2023-10-09T03:09:24;13.00;95.50
4376;DHT22;2202;50.866;12.750;2023-10-09T03:11:55;13.10;95.40
4376;DHT22;2202;50.866;12.750;2023-10-09T03:14:25;13.10;95.30
4376;DHT22;2202;50.866;12.750;2023-10-09T03:16:54;13.10;95.30
4376;DHT22;2202;50.866;12.750;2023-10-09T03:19:21;13.10;95.40
4376;DHT22;2202;50.866;12.750;2023-10-09T03:21:50;13.10;95.20
4376;DHT22;2202;50.866;12.750;2023-10-09T03:24:17;13.10;95.30
4376;DHT22;2202;50.866;12.750;2023-10-09T03:26:45;13.10;95.40
4376;DHT22;2202;50.866;12.750;2023-10-09T03:29:13;13.10;95.40
4376;DHT22;2202;50.866;12.750;2023-10-09T03:31:40;13.20;95.40
4376;DHT22;2202;50.866;12.750;2023-10-09T03:34:08;13.20;95.50
4376;DHT22;2202;50.866;12.750;2023-10-09T03:36:36;13.20;95.40
4376;DHT22;2202;50.866;12.750;2023-10-09T03:39:04;13.30;95.20
4376;DHT22;2202;50.866;12.750;2023-10-09T03:41:43;13.30;95.00
4376;DHT22;2202;50.866;12.750;2023-10-09T03:44:13;13.40;94.80
4376;DHT22;2202;50.866;12.750;2023-10-09T03:46:43;13.40;94.90
4376;DHT22;2202;50.866;12.750;2023-10-09T03:49:11;13.40;94.70
4376;DHT22;2202;50.866;12.750;2023-10-09T03:51:39;13.40;94.60
4376;DHT22;2202;50.866;12.750;2023-10-09T03:54:07;13.40;94.50
4376;DHT22;2202;50.866;12.750;2023-10-09T03:56:35;13.30;94.70
4376;DHT22;2202;50.866;12.750;2023-10-09T03:59:02;13.30;94.60
4376;DHT22;2202;50.866;12.750;2023-10-09T04:01:32;13.40;94.60
4376;DHT22;2202;50.866;12.750;2023-10-09T04:04:04;13.30;94.60
4376;DHT22;2202;50.866;12.750;2023-10-09T04:06:33;13.30;94.70
4376;DHT22;2202;50.866;12.750;2023-10-09T04:09:01;13.30;94.60
4376;DHT22;2202;50.866;12.750;2023-10-09T04:11:39;13.30;94.50
4376;DHT22;2202;50.866;12.750;2023-10-09T04:14:08;13.40;94.40
4376;DHT22;2202;50.866;12.750;2023-10-09T04:16:40;13.40;94.20
4376;DHT22;2202;50.866;12.750;2023-10-09T04:19:17;13.40;94.40
4376;DHT22;2202;50.866;12.750;2023-10-09T04:21:48;13.30;94.40
4376;DHT22;2202;50.866;12.750;2023-10-09T04:24:15;13.30;94.50
4376;DHT22;2202;50.866;12.750;2023-10-09T04:26:51;13.30;94.40
4376;DHT22;2202;50.866;12.750;2023-10-09T04:29:24;13.30;94.40
4376;DHT22;2202;50.866;12.750;2023-10-09T04:31:54;13.30;94.50
4376;DHT22;2202;50.866;12.750;2023-10-09T04:34:22;13.30;94.50
4376;DHT22;2202;50.866;12.750;2023-10-09T04:36:48;13.30;94.60
4376;DHT22;2202;50.866;12.750;2023-10-09T04:42:01;13.30;94.60
4376;DHT22;2202;50.866;12.750;2023-10-09T04:44:52;13.30;94.70
4376;DHT22;2202;50.866;12.750;2023-10-09T04:47:37;13.30;94.90
4376;DHT22;2202;50.866;12.750;2023-10-09T04:50:15;13.30;95.00
4376;DHT22;2202;50.866;12.750;2023-10-09T04:53:02;13.30;95.00
4376;DHT22;2202;50.866;12.750;2023-10-09T04:55:47;13.30;95.20
4376;DHT22;2202;50.866;12.750;2023-10-09T04:58:21;13.30;95.20
4376;DHT22;2202;50.866;12.750;2023-10-09T05:00:52;13.30;95.20
4376;DHT22;2202;50.866;12.750;2023-10-09T05:03:31;13.40;95.20
4376;DHT22;2202;50.866;12.750;2023-10-09T05:06:11;13.40;95.20
4376;DHT22;2202;50.866;12.750;2023-10-09T05:08:58;13.40;95.10
4376;DHT22;2202;50.866;12.750;2023-10-09T05:11:34;13.40;95.00
4376;DHT22;2202;50.866;12.750;2023-10-09T05:14:19;13.40;95.00
4376;DHT22;2202;50.866;12.750;2023-10-09T05:16:53;13.40;95.00
4376;DHT22;2202;50.866;12.750;2023-10-09T05:19:28;13.40;95.10
4376;DHT22;2202;50.866;12.750;2023-10-09T05:22:08;13.40;95.10
4376;DHT22;2202;50.866;12.750;2023-10-09T05:24:43;13.40;95.10
4376;DHT22;2202;50.866;12.750;2023-10-09T05:27:10;13.40;95.00
4376;DHT22;2202;50.866;12.750;2023-10-09T05:30:07;13.50;94.90
4376;DHT22;2202;50.866;12.750;2023-10-09T05:32:51;13.50;94.90
4376;DHT22;2202;50.866;12.750;2023-10-09T05:35:22;13.50;95.00
4376;DHT22;2202;50.866;12.750;2023-10-09T05:38:08;13.40;95.10
4376;DHT22;2202;50.866;12.750;2023-10-09T05:40:50;13.40;95.30
4376;DHT22;2202;50.866;12.750;2023-10-09T05:43:20;13.40;95.30
4376;DHT22;2202;50.866;12.750;2023-10-09T05:46:01;13.40;95.40
4376;DHT22;2202;50.866;12.750;2023-10-09T05:48:35;13.40;95.50
4376;DHT22;2202;50.866;12.750;2023-10-09T05:51:21;13.30;95.70
4376;DHT22;2202;50.866;12.750;2023-10-09T05:54:05;13.30;95.80
4376;DHT22;2202;50.866;12.750;2023-10-09T05:56:50;13.40;95.60
4376;DHT22;2202;50.866;12.750;2023-10-09T05:59:34;13.40;95.60
4376;DHT22;2202;50.866;12.750;2023-10-09T06:02:18;13.40;95.40
4376;DHT22;2202;50.866;12.750;2023-10-09T06:05:08;13.40;95.30
4376;DHT22;2202;50.866;12.750;2023-10-09T06:08:07;13.50;95.10
4376;DHT22;2202;50.866;12.750;2023-10-09T06:10:38;13.50;95.10
4376;DHT22;2202;50.866;12.750;2023-10-09T06:13:08;13.50;95.10
4376;DHT22;2202;50.866;12.750;2023-10-09T06:15:56;13.60;95.00
4376;DHT22;2202;50.866;12.750;2023-10-09T06:18:40;13.60;95.00
4376;DHT22;2202;50.866;12.750;2023-10-09T06:21:09;13.50;95.10
4376;DHT22;2202;50.866;12.750;2023-10-09T06:23:57;13.60;94.90
4376;DHT22;2202;50.866;12.750;2023-10-09T06:26:35;13.60;94.80
4376;DHT22;2202;50.866;12.750;2023-10-09T06:29:02;13.60;94.80
4376;DHT22;2202;50.866;12.750;2023-10-09T06:31:41;13.60;94.80
4376;DHT22;2202;50.866;12.750;2023-10-09T06:34:47;13.60;94.80
4376;DHT22;2202;50.866;12.750;2023-10-09T06:37:17;13.60;94.70
4376;DHT22;2202;50.866;12.750;2023-10-09T06:40:01;13.60;94.90
4376;DHT22;2202;50.866;12.750;2023-10-09T06:43:01;13.60;95.40
4376;DHT22;2202;50.866;12.750;2023-10-09T06:45:35;13.50;95.60
4376;DHT22;2202;50.866;12.750;2023-10-09T06:48:10;13.40;95.90
4376;DHT22;2202;50.866;12.750;2023-10-09T06:50:51;13.40;96.00
4376;DHT22;2202;50.866;12.750;2023-10-09T06:53:30;13.40;95.90
4376;DHT22;2202;50.866;12.750;2023-10-09T06:56:12;13.40;96.10
4376;DHT22;2202;50.866;12.750;2023-10-09T06:58:50;13.40;96.10
4376;DHT22;2202;50.866;12.750;2023-10-09T07:01:20;13.40;96.40
4376;DHT22;2202;50.866;12.750;2023-10-09T07:03:54;13.40;96.60
4376;DHT22;2202;50.866;12.750;2023-10-09T07:06:26;13.40;96.50
4376;DHT22;2202;50.866;12.750;2023-10-09T07:09:07;13.40;96.50
4376;DHT22;2202;50.866;12.750;2023-10-09T07:11:47;13.40;96.70
4376;DHT22;2202;50.866;12.750;2023-10-09T07:14:24;13.40;96.60
4376;DHT22;2202;50.866;12.750;2023-10-09T07:17:09;13.40;97.00
4376;DHT22;2202;50.866;12.750;2023-10-09T07:19:48;13.40;97.10
4376;DHT22;2202;50.866;12.750;2023-10-09T07:22:32;13.40;97.10
4376;DHT22;2202;50.866;12.750;2023-10-09T07:25:06;13.40;97.10
4376;DHT22;2202;50.866;12.750;2023-10-09T07:27:50;13.40;97.30
4376;DHT22;2202;50.866;12.750;2023-10-09T07:30:19;13.50;97.20
4376;DHT22;2202;50.866;12.750;2023-10-09T07:33:02;13.50;97.30
4376;DHT22;2202;50.866;12.750;2023-10-09T07:35:44;13.50;97.40
4376;DHT22;2202;50.866;12.750;2023-10-09T07:38:16;13.50;97.40
4376;DHT22;2202;50.866;12.750;2023-10-09T07:40:45;13.50;97.40
4376;DHT22;2202;50.866;12.750;2023-10-09T07:43:32;13.50;97.50
4376;DHT22;2202;50.866;12.750;2023-10-09T07:46:04;13.60;97.50
4376;DHT22;2202;50.866;12.750;2023-10-09T07:48:49;13.50;97.60
4376;DHT22;2202;50.866;12.750;2023-10-09T07:51:18;13.50;97.80
4376;DHT22;2202;50.866;12.750;2023-10-09T07:53:49;13.50;97.80
4376;DHT22;2202;50.866;12.750;2023-10-09T07:56:23;13.60;97.60
4376;DHT22;2202;50.866;12.750;2023-10-09T07:58:51;13.60;97.80
4376;DHT22;2202;50.866;12.750;2023-10-09T08:01:18;13.60;97.80
4376;DHT22;2202;50.866;12.750;2023-10-09T08:03:58;13.60;97.50
4376;DHT22;2202;50.866;12.750;2023-10-09T08:06:30;13.60;97.80
4376;DHT22;2202;50.866;12.750;2023-10-09T08:09:08;13.50;97.80
4376;DHT22;2202;50.866;12.750;2023-10-09T08:11:45;13.50;97.80
4376;DHT22;2202;50.866;12.750;2023-10-09T08:15:02;13.50;98.10
4376;DHT22;2202;50.866;12.750;2023-10-09T08:17:46;13.50;98.20
4376;DHT22;2202;50.866;12.750;2023-10-09T08:20:17;13.50;98.20
4376;DHT22;2202;50.866;12.750;2023-10-09T08:22:43;13.50;98.30
4376;DHT22;2202;50.866;12.750;2023-10-09T08:25:16;13.50;98.10
4376;DHT22;2202;50.866;12.750;2023-10-09T08:27:55;13.50;98.20
4376;DHT22;2202;50.866;12.750;2023-10-09T08:30:25;13.50;98.20
4376;DHT22;2202;50.866;12.750;2023-10-09T08:32:54;13.50;98.50
4376;DHT22;2202;50.866;12.750;2023-10-09T08:35:28;13.50;98.40
4376;DHT22;2202;50.866;12.750;2023-10-09T08:37:55;13.50;98.40
4376;DHT22;2202;50.866;12.750;2023-10-09T08:40:31;13.50;98.60
4376;DHT22;2202;50.866;12.750;2023-10-09T08:43:08;13.50;98.70
4376;DHT22;2202;50.866;12.750;2023-10-09T08:45:38;13.50;98.70
4376;DHT22;2202;50.866;12.750;2023-10-09T08:48:07;13.40;98.60
4376;DHT22;2202;50.866;12.750;2023-10-09T08:50:35;13.50;98.80
4376;DHT22;2202;50.866;12.750;2023-10-09T08:53:03;13.60;98.60
4376;DHT22;2202;50.866;12.750;2023-10-09T08:55:30;13.60;98.30
4376;DHT22;2202;50.866;12.750;2023-10-09T08:57:57;13.60;98.30
4376;DHT22;2202;50.866;12.750;2023-10-09T09:00:24;13.70;98.30
4376;DHT22;2202;50.866;12.750;2023-10-09T09:02:52;13.70;98.10
4376;DHT22;2202;50.866;12.750;2023-10-09T09:05:20;13.70;98.30
4376;DHT22;2202;50.866;12.750;2023-10-09T09:07:47;13.70;98.10
4376;DHT22;2202;50.866;12.750;2023-10-09T09:10:15;13.60;98.10
4376;DHT22;2202;50.866;12.750;2023-10-09T09:12:47;13.60;98.40
4376;DHT22;2202;50.866;12.750;2023-10-09T09:15:19;13.60;98.50
4376;DHT22;2202;50.866;12.750;2023-10-09T09:18:03;13.70;98.60
4376;DHT22;2202;50.866;12.750;2023-10-09T09:20:32;13.60;98.60
4376;DHT22;2202;50.866;12.750;2023-10-09T09:23:02;13.60;98.80
4376;DHT22;2202;50.866;12.750;2023-10-09T09:25:40;13.70;98.70
4376;DHT22;2202;50.866;12.750;2023-10-09T09:28:09;13.60;98.50
4376;DHT22;2202;50.866;12.750;2023-10-09T09:30:38;13.70;98.50
4376;DHT22;2202;50.866;12.750;2023-10-09T09:33:20;13.70;98.40
4376;DHT22;2202;50.866;12.750;2023-10-09T09:35:59;13.70;98.40
4376;DHT22;2202;50.866;12.750;2023-10-09T09:38:28;13.80;98.50
4376;DHT22;2202;50.866;12.750;2023-10-09T09:41:01;13.80;98.40
4376;DHT22;2202;50.866;12.750;2023-10-09T09:43:34;13.80;98.40
4376;DHT22;2202;50.866;12.750;2023-10-09T09:46:02;13.80;98.20
4376;DHT22;2202;50.866;12.750;2023-10-09T09:48:37;13.80;98.30
4376;DHT22;2202;50.866;12.750;2023-10-09T09:51:11;13.80;98.40
4376;DHT22;2202;50.866;12.750;2023-10-09T09:53:40;13.80;98.60
4376;DHT22;2202;50.866;12.750;2023-10-09T09:56:07;13.70;98.60
4376;DHT22;2202;50.866;12.750;2023-10-09T09:58:43;13.70;98.70
4376;DHT22;2202;50.866;12.750;2023-10-09T10:01:13;13.60;98.70
4376;DHT22;2202;50.866;12.750;2023-10-09T10:03:55;13.60;99.00
4376;DHT22;2202;50.866;12.750;2023-10-09T10:06:25;13.70;99.10
4376;DHT22;2202;50.866;12.750;2023-10-09T10:08:54;13.70;99.00
4376;DHT22;2202;50.866;12.750;2023-10-09T10:11:43;13.70;98.70
4376;DHT22;2202;50.866;12.750;2023-10-09T10:14:11;13.70;98.90
4376;DHT22;2202;50.866;12.750;2023-10-09T10:17:00;13.70;99.00
4376;DHT22;2202;50.866;12.750;2023-10-09T10:20:04;13.60;99.00
4376;DHT22;2202;50.866;12.750;2023-10-09T10:22:45;13.60;99.20
4376;DHT22;2202;50.866;12.750;2023-10-09T10:25:31;13.60;99.10
4376;DHT22;2202;50.866;12.750;2023-10-09T10:28:21;13.70;99.00
4376;DHT22;2202;50.866;12.750;2023-10-09T10:31:04;13.70;99.10
4376;DHT22;2202;50.866;12.750;2023-10-09T10:34:05;13.70;99.10
4376;DHT22;2202;50.866;12.750;2023-10-09T10:36:37;13.70;99.10
4376;DHT22;2202;50.866;12.750;2023-10-09T10:39:09;13.70;99.40
4376;DHT22;2202;50.866;12.750;2023-10-09T10:41:37;13.70;99.60
4376;DHT22;2202;50.866;12.750;2023-10-09T10:44:24;13.80;99.70
4376;DHT22;2202;50.866;12.750;2023-10-09T10:47:05;13.90;99.50
4376;DHT22;2202;50.866;12.750;2023-10-09T10:49:48;13.80;99.40
4376;DHT22;2202;50.866;12.750;2023-10-09T10:52:22;13.90;99.30
4376;DHT22;2202;50.866;12.750;2023-10-09T10:55:08;13.90;99.30
4376;DHT22;2202;50.866;12.750;2023-10-09T10:57:44;13.80;99.10
4376;DHT22;2202;50.866;12.750;2023-10-09T11:00:28;13.90;99.30
4376;DHT22;2202;50.866;12.750;2023-10-09T11:03:37;13.90;99.00
4376;DHT22;2202;50.866;12.750;2023-10-09T11:06:25;13.90;99.10
4376;DHT22;2202;50.866;12.750;2023-10-09T11:09:03;13.90;99.30
4376;DHT22;2202;50.866;12.750;2023-10-09T11:11:47;13.90;99.40
4376;DHT22;2202;50.866;12.750;2023-10-09T11:14:14;13.80;99.30
4376;DHT22;2202;50.866;12.750;2023-10-09T11:16:40;13.90;99.20
4376;DHT22;2202;50.866;12.750;2023-10-09T11:19:14;13.80;99.40
4376;DHT22;2202;50.866;12.750;2023-10-09T11:21:55;13.90;99.40
4376;DHT22;2202;50.866;12.750;2023-10-09T11:24:48;13.90;99.30
4376;DHT22;2202;50.866;12.750;2023-10-09T11:27:27;13.90;99.20
4376;DHT22;2202;50.866;12.750;2023-10-09T11:29:58;13.90;99.30
4376;DHT22;2202;50.866;12.750;2023-10-09T11:32:31;14.00;99.40
4376;DHT22;2202;50.866;12.750;2023-10-09T11:35:11;14.00;99.40
4376;DHT22;2202;50.866;12.750;2023-10-09T11:37:37;14.10;99.10
4376;DHT22;2202;50.866;12.750;2023-10-09T11:40:27;14.10;98.90
4376;DHT22;2202;50.866;12.750;2023-10-09T11:43:00;14.10;98.70
4376;DHT22;2202;50.866;12.750;2023-10-09T11:45:28;14.10;98.90
4376;DHT22;2202;50.866;12.750;2023-10-09T11:47:56;14.20;98.70
4376;DHT22;2202;50.866;12.750;2023-10-09T11:50:42;14.10;98.70
4376;DHT22;2202;50.866;12.750;2023-10-09T11:53:09;14.20;98.80
4376;DHT22;2202;50.866;12.750;2023-10-09T11:55:46;14.20;98.80
4376;DHT22;2202;50.866;12.750;2023-10-09T11:58:14;14.10;98.90
4376;DHT22;2202;50.866;12.750;2023-10-09T12:00:49;14.20;99.00
4376;DHT22;2202;50.866;12.750;2023-10-09T12:03:16;14.10;99.10
4376;DHT22;2202;50.866;12.750;2023-10-09T12:05:47;14.10;99.00
4376;DHT22;2202;50.866;12.750;2023-10-09T12:08:15;14.10;99.10
4376;DHT22;2202;50.866;12.750;2023-10-09T12:10:49;14.10;99.20
4376;DHT22;2202;50.866;12.750;2023-10-09T12:13:16;14.10;99.30
4376;DHT22;2202;50.866;12.750;2023-10-09T12:15:44;14.00;99.40
4376;DHT22;2202;50.866;12.750;2023-10-09T12:18:12;14.00;99.50
4376;DHT22;2202;50.866;12.750;2023-10-09T12:20:41;13.90;99.60
4376;DHT22;2202;50.866;12.750;2023-10-09T12:23:15;13.80;99.70
4376;DHT22;2202;50.866;12.750;2023-10-09T12:25:42;13.80;99.80
4376;DHT22;2202;50.866;12.750;2023-10-09T12:28:12;13.90;99.90
4376;DHT22;2202;50.866;12.750;2023-10-09T12:30:39;13.90;99.70
4376;DHT22;2202;50.866;12.750;2023-10-09T12:33:06;13.90;99.50
4376;DHT22;2202;50.866;12.750;2023-10-09T12:35:40;13.90;99.60
4376;DHT22;2202;50.866;12.750;2023-10-09T12:38:07;13.90;99.70
4376;DHT22;2202;50.866;12.750;2023-10-09T12:40:36;13.80;99.50
4376;DHT22;2202;50.866;12.750;2023-10-09T12:43:08;13.90;99.80
4376;DHT22;2202;50.866;12.750;2023-10-09T12:45:42;13.80;99.70
4376;DHT22;2202;50.866;12.750;2023-10-09T12:48:10;13.80;99.80
4376;DHT22;2202;50.866;12.750;2023-10-09T12:50:38;13.80;99.90
4376;DHT22;2202;50.866;12.750;2023-10-09T12:53:07;13.80;99.90
4376;DHT22;2202;50.866;12.750;2023-10-09T12:55:38;13.80;99.80
4376;DHT22;2202;50.866;12.750;2023-10-09T12:58:07;13.80;99.80
4376;DHT22;2202;50.866;12.750;2023-10-09T13:00:35;13.80;99.90
4376;DHT22;2202;50.866;12.750;2023-10-09T13:03:07;13.80;99.90
4376;DHT22;2202;50.866;12.750;2023-10-09T13:05:46;13.80;99.90
4376;DHT22;2202;50.866;12.750;2023-10-09T13:08:23;13.80;99.90
4376;DHT22;2202;50.866;12.750;2023-10-09T13:10:57;13.70;99.90
4376;DHT22;2202;50.866;12.750;2023-10-09T13:13:36;13.70;99.90
4376;DHT22;2202;50.866;12.750;2023-10-09T13:16:10;13.70;99.90
4376;DHT22;2202;50.866;12.750;2023-10-09T13:18:49;13.70;99.90
4376;DHT22;2202;50.866;12.750;2023-10-09T13:21:17;13.80;99.90
4376;DHT22;2202;50.866;12.750;2023-10-09T13:23:44;13.70;99.90
4376;DHT22;2202;50.866;12.750;2023-10-09T13:26:13;13.70;99.90
4376;DHT22;2202;50.866;12.750;2023-10-09T13:28:50;13.70;99.90
4376;DHT22;2202;50.866;12.750;2023-10-09T13:31:18;13.80;99.90
4376;DHT22;2202;50.866;12.750;2023-10-09T13:33:47;13.80;99.90
4376;DHT22;2202;50.866;12.750;2023-10-09T13:36:15;13.80;99.90
4376;DHT22;2202;50.866;12.750;2023-10-09T13:38:45;13.80;99.90
4376;DHT22;2202;50.866;12.750;2023-10-09T13:41:12;13.80;99.90
4376;DHT22;2202;50.866;12.750;2023-10-09T13:43:43;13.80;99.90
4376;DHT22;2202;50.866;12.750;2023-10-09T13:46:10;13.80;99.90
4376;DHT22;2202;50.866;12.750;2023-10-09T13:48:39;13.80;99.90
4376;DHT22;2202;50.866;12.750;2023-10-09T13:51:07;13.80;99.90
4376;DHT22;2202;50.866;12.750;2023-10-09T13:53:41;13.80;99.90
4376;DHT22;2202;50.866;12.750;2023-10-09T13:56:12;13.80;99.90
4376;DHT22;2202;50.866;12.750;2023-10-09T13:58:47;13.80;99.90
4376;DHT22;2202;50.866;12.750;2023-10-09T14:01:15;13.80;99.90
4376;DHT22;2202;50.866;12.750;2023-10-09T14:03:54;13.80;99.90
4376;DHT22;2202;50.866;12.750;2023-10-09T14:06:20;13.80;99.90
4376;DHT22;2202;50.866;12.750;2023-10-09T14:08:57;13.80;99.90
4376;DHT22;2202;50.866;12.750;2023-10-09T14:11:25;13.80;99.90
4376;DHT22;2202;50.866;12.750;2023-10-09T14:13:52;13.90;99.90
4376;DHT22;2202;50.866;12.750;2023-10-09T14:16:19;13.80;99.90
4376;DHT22;2202;50.866;12.750;2023-10-09T14:18:54;13.80;99.90
4376;DHT22;2202;50.866;12.750;2023-10-09T14:21:23;13.80;99.90
4376;DHT22;2202;50.866;12.750;2023-10-09T14:23:51;13.90;99.90
4376;DHT22;2202;50.866;12.750;2023-10-09T14:26:24;13.90;99.90
4376;DHT22;2202;50.866;12.750;2023-10-09T14:28:51;13.90;99.90
4376;DHT22;2202;50.866;12.750;2023-10-09T14:31:19;13.90;99.90
4376;DHT22;2202;50.866;12.750;2023-10-09T14:33:52;13.90;99.90
4376;DHT22;2202;50.866;12.750;2023-10-09T14:36:19;13.90;99.90
4376;DHT22;2202;50.866;12.750;2023-10-09T14:38:47;13.90;99.90
4376;DHT22;2202;50.866;12.750;2023-10-09T14:41:18;13.90;99.90
4376;DHT22;2202;50.866;12.750;2023-10-09T14:43:49;13.90;99.90
4376;DHT22;2202;50.866;12.750;2023-10-09T14:46:16;13.90;99.90
4376;DHT22;2202;50.866;12.750;2023-10-09T14:48:49;13.90;99.90
4376;DHT22;2202;50.866;12.750;2023-10-09T14:51:18;13.90;99.90
4376;DHT22;2202;50.866;12.750;2023-10-09T14:53:55;13.80;99.90
4376;DHT22;2202;50.866;12.750;2023-10-09T14:56:25;13.80;99.90
4376;DHT22;2202;50.866;12.750;2023-10-09T14:58:58;13.80;99.90
4376;DHT22;2202;50.866;12.750;2023-10-09T15:01:25;13.80;99.90
4376;DHT22;2202;50.866;12.750;2023-10-09T15:03:55;13.90;99.90
4376;DHT22;2202;50.866;12.750;2023-10-09T15:06:23;13.90;99.90
4376;DHT22;2202;50.866;12.750;2023-10-09T15:08:51;13.90;99.90
4376;DHT22;2202;50.866;12.750;2023-10-09T15:11:21;13.80;99.90
4376;DHT22;2202;50.866;12.750;2023-10-09T15:13:50;13.80;99.90
4376;DHT22;2202;50.866;12.750;2023-10-09T15:16:19;13.80;99.90
4376;DHT22;2202;50.866;12.750;2023-10-09T15:18:47;13.80;99.90
4376;DHT22;2202;50.866;12.750;2023-10-09T15:21:18;13.80;99.90
4376;DHT22;2202;50.866;12.750;2023-10-09T15:23:46;13.80;99.90
4376;DHT22;2202;50.866;12.750;2023-10-09T15:26:13;13.80;99.90
4376;DHT22;2202;50.866;12.750;2023-10-09T15:28:42;13.80;99.90
4376;DHT22;2202;50.866;12.750;2023-10-09T15:31:09;13.80;99.90
4376;DHT22;2202;50.866;12.750;2023-10-09T15:33:38;13.80;99.90
4376;DHT22;2202;50.866;12.750;2023-10-09T15:36:10;13.80;99.90
4376;DHT22;2202;50.866;12.750;2023-10-09T15:38:37;13.70;99.90
4376;DHT22;2202;50.866;12.750;2023-10-09T15:41:04;13.70;99.90
4376;DHT22;2202;50.866;12.750;2023-10-09T15:43:31;13.70;99.90
4376;DHT22;2202;50.866;12.750;2023-10-09T15:45:59;13.70;99.90
4376;DHT22;2202;50.866;12.750;2023-10-09T15:48:27;13.70;99.90
4376;DHT22;2202;50.866;12.750;2023-10-09T15:50:55;13.70;99.90
4376;DHT22;2202;50.866;12.750;2023-10-09T15:53:22;13.70;99.90
4376;DHT22;2202;50.866;12.750;2023-10-09T15:55:50;13.80;99.90
4376;DHT22;2202;50.866;12.750;2023-10-09T15:58:23;13.70;99.90
4376;DHT22;2202;50.866;12.750;2023-10-09T16:00:49;13.70;99.90
4376;DHT22;2202;50.866;12.750;2023-10-09T16:03:17;13.70;99.90
4376;DHT22;2202;50.866;12.750;2023-10-09T16:05:44;13.70;99.90
4376;DHT22;2202;50.866;12.750;2023-10-09T16:08:13;13.60;99.90
4376;DHT22;2202;50.866;12.750;2023-10-09T16:10:44;13.60;99.90
4376;DHT22;2202;50.866;12.750;2023-10-09T16:13:12;13.60;99.90
4376;DHT22;2202;50.866;12.750;2023-10-09T16:15:41;13.60;99.90
4376;DHT22;2202;50.866;12.750;2023-10-09T16:18:09;13.60;99.90
4376;DHT22;2202;50.866;12.750;2023-10-09T16:20:37;13.60;99.90
4376;DHT22;2202;50.866;12.750;2023-10-09T16:23:04;13.60;99.90
4376;DHT22;2202;50.866;12.750;2023-10-09T16:25:32;13.60;99.90
4376;DHT22;2202;50.866;12.750;2023-10-09T16:28:01;13.70;99.90